Time;durP1;ratioP1;P1;durP2;ratioP2;P2;SDS_P1;SDS_P2;PMS_P1;PMS_P2;Temp;Humidity;BMP_temperature;BMP_pressure;BME280_temperature;BME280_humidity;BME280_pressure;Samples;Min_cycle;Max_cycle;Signal;HPM_P1;HPM_P2
2021/04/05 00:00:29;;;;;;;13.07;8.50;;;5.00;59.60;;;;;;6275625;28;20469;-59
2021/04/05 00:03:31;;;;;;;14.30;9.47;;;4.90;59.70;;;;;;6275621;28;20482;-59
2021/04/05 00:06:33;;;;;;;10.50;8.13;;;4.90;59.80;;;;;;6275691;28;20485;-59
2021/04/05 00:09:39;;;;;;;9.67;7.07;;;4.90;59.80;;;;;;6275637;28;20454;-59
2021/04/05 00:12:41;;;;;;;8.17;6.00;;;4.90;59.90;;;;;;6275518;28;20516;-59
2021/04/05 00:15:45;;;;;;;6.13;5.23;;;4.80;60.60;;;;;;6275688;28;20452;-59
2021/04/05 00:18:48;;;;;;;6.70;5.63;;;4.80;60.90;;;;;;6275424;28;20779;-59
2021/04/05 00:21:52;;;;;;;6.23;5.63;;;4.70;61.10;;;;;;6275696;28;20438;-59
2021/04/05 00:24:57;;;;;;;7.10;5.63;;;4.70;61.10;;;;;;6275532;28;20462;-59
2021/04/05 00:28:01;;;;;;;6.30;5.70;;;4.70;61.30;;;;;;6275226;28;20473;-60
2021/04/05 00:31:03;;;;;;;7.50;5.37;;;4.70;61.70;;;;;;6274926;28;20965;-59
2021/04/05 00:34:05;;;;;;;5.63;4.90;;;4.70;61.80;;;;;;6274941;28;20815;-59
2021/04/05 00:37:08;;;;;;;6.07;4.93;;;4.70;62.00;;;;;;6274967;28;20474;-59
2021/04/05 00:40:14;;;;;;;6.03;5.43;;;4.70;62.40;;;;;;6274920;28;20469;-59
2021/04/05 00:43:17;;;;;;;5.63;4.80;;;4.70;62.40;;;;;;6275023;28;20478;-59
2021/04/05 00:46:24;;;;;;;5.00;4.57;;;4.60;62.70;;;;;;6274572;28;20466;-59
2021/04/05 00:49:26;;;;;;;6.63;5.83;;;4.60;63.20;;;;;;6274718;28;20480;-59
2021/04/05 00:52:29;;;;;;;5.40;4.90;;;4.50;63.40;;;;;;6274517;28;20474;-59
2021/04/05 00:55:32;;;;;;;6.47;5.37;;;4.50;63.40;;;;;;6276118;28;20470;-59
2021/04/05 00:58:35;;;;;;;5.20;3.43;;;4.60;63.20;;;;;;6275636;28;20466;-59
2021/04/05 01:01:37;;;;;;;4.77;4.37;;;4.50;63.50;;;;;;6275269;28;20976;-59
2021/04/05 01:04:39;;;;;;;5.03;4.37;;;4.50;64.10;;;;;;6275432;28;20814;-59
2021/04/05 01:07:42;;;;;;;7.20;5.13;;;4.50;63.90;;;;;;6275899;28;20470;-59
2021/04/05 01:10:45;;;;;;;6.47;4.53;;;4.50;64.40;;;;;;6275340;28;20507;-59
2021/04/05 01:13:48;;;;;;;7.00;4.20;;;4.50;64.80;;;;;;6275488;28;20485;-59
2021/04/05 01:16:50;;;;;;;5.37;4.77;;;4.50;64.80;;;;;;6275353;28;20470;-59
2021/04/05 01:19:53;;;;;;;4.47;4.00;;;4.50;64.80;;;;;;6275387;28;20477;-59
2021/04/05 01:22:56;;;;;;;4.80;4.27;;;4.50;64.40;;;;;;6274497;28;20543;-59
2021/04/05 01:25:59;;;;;;;5.23;4.70;;;4.50;64.30;;;;;;6275685;28;20470;-59
2021/04/05 01:29:01;;;;;;;4.50;4.10;;;4.50;64.70;;;;;;6275213;28;20540;-61
2021/04/05 01:32:04;;;;;;;5.73;4.13;;;4.40;64.90;;;;;;6274781;28;20950;-60
2021/04/05 01:35:08;;;;;;;5.90;5.00;;;4.40;65.30;;;;;;6275126;28;20478;-59
2021/04/05 01:38:13;;;;;;;7.60;5.20;;;4.30;65.30;;;;;;6275138;28;20922;-59
2021/04/05 01:41:18;;;;;;;4.93;3.83;;;4.30;65.30;;;;;;6270311;28;20493;-60
2021/04/05 01:44:20;;;;;;;5.63;4.23;;;4.20;65.70;;;;;;6274753;28;20485;-61
2021/04/05 01:47:22;;;;;;;5.10;4.60;;;4.20;66.10;;;;;;6274664;28;20472;-60
2021/04/05 01:50:25;;;;;;;5.70;4.80;;;4.20;66.40;;;;;;6274749;28;20478;-59
2021/04/05 01:53:28;;;;;;;4.20;3.80;;;4.20;66.20;;;;;;6274857;28;20493;-62
2021/04/05 01:56:30;;;;;;;4.10;3.70;;;4.10;66.30;;;;;;6274728;28;20532;-61
2021/04/05 01:59:32;;;;;;;5.40;4.30;;;4.00;66.40;;;;;;6274449;28;20466;-62
2021/04/05 02:02:35;;;;;;;5.43;4.13;;;4.00;68.00;;;;;;6274735;28;20477;-60
2021/04/05 02:05:38;;;;;;;4.70;4.30;;;3.90;67.90;;;;;;6274777;28;20473;-60
2021/04/05 02:08:43;;;;;;;7.30;4.40;;;3.90;67.90;;;;;;6274427;28;20818;-59
2021/04/05 02:11:45;;;;;;;4.43;3.83;;;3.90;67.80;;;;;;6274453;28;20467;-60
2021/04/05 02:14:48;;;;;;;4.10;3.80;;;3.90;67.90;;;;;;6274033;28;20922;-62
2021/04/05 02:17:50;;;;;;;5.03;3.97;;;3.90;68.00;;;;;;6274867;28;20477;-60
2021/04/05 02:20:53;;;;;;;4.93;4.33;;;3.90;68.40;;;;;;6274485;28;20981;-62
2021/04/05 02:24:02;;;;;;;7.90;5.73;;;3.90;68.50;;;;;;6274177;28;20824;-62
2021/04/05 02:27:06;;;;;;;7.57;3.90;;;3.90;68.30;;;;;;6274409;28;20474;-60
2021/04/05 02:30:09;;;;;;;4.70;4.30;;;3.80;68.60;;;;;;6274246;28;20479;-60
2021/04/05 02:33:11;;;;;;;5.73;4.03;;;3.70;68.90;;;;;;6275302;28;20480;-60
2021/04/05 02:36:16;;;;;;;5.30;4.10;;;3.80;69.40;;;;;;6278970;28;20478;-60
2021/04/05 02:39:19;;;;;;;8.60;3.70;;;3.80;69.40;;;;;;6279374;28;20466;-60
2021/04/05 02:42:22;;;;;;;3.97;3.60;;;3.90;69.50;;;;;;6279177;28;20470;-60
2021/04/05 02:45:27;;;;;;;5.87;4.50;;;3.90;70.30;;;;;;6274212;28;20494;-62
2021/04/05 02:48:32;;;;;;;3.90;3.60;;;3.90;69.50;;;;;;6278557;28;20474;-60
2021/04/05 02:51:35;;;;;;;3.70;3.40;;;3.90;69.80;;;;;;6278114;28;20493;-60
2021/04/05 02:54:39;;;;;;;4.93;4.43;;;3.90;70.40;;;;;;6278255;28;20454;-60
2021/04/05 02:57:43;;;;;;;8.80;5.33;;;3.90;70.40;;;;;;6278840;28;20805;-60
2021/04/05 03:00:46;;;;;;;6.43;5.17;;;3.80;70.10;;;;;;6278602;28;20543;-60
2021/04/05 03:03:49;;;;;;;5.93;4.20;;;3.90;70.50;;;;;;6278044;28;20490;-60
2021/04/05 03:06:51;;;;;;;5.73;4.50;;;3.80;70.60;;;;;;6278296;28;20918;-60
2021/04/05 03:09:55;;;;;;;5.07;4.57;;;3.80;70.30;;;;;;6278249;28;20469;-60
2021/04/05 03:12:59;;;;;;;4.23;3.90;;;3.80;70.30;;;;;;6278469;28;20584;-60
2021/04/05 03:16:03;;;;;;;5.50;4.57;;;3.70;70.30;;;;;;6278264;28;20469;-60
2021/04/05 03:19:07;;;;;;;6.20;4.70;;;3.60;70.70;;;;;;6278325;28;20476;-59
2021/04/05 03:22:09;;;;;;;5.93;4.70;;;3.60;71.30;;;;;;6277965;28;20803;-60
2021/04/05 03:25:17;;;;;;;4.63;4.20;;;3.60;71.60;;;;;;6277517;28;20462;-59
2021/04/05 03:28:19;;;;;;;6.10;4.27;;;3.60;71.60;;;;;;6278160;28;20478;-60
2021/04/05 03:31:25;;;;;;;4.43;4.03;;;3.60;71.60;;;;;;6278221;28;20466;-59
2021/04/05 03:34:29;;;;;;;4.70;4.20;;;3.60;71.80;;;;;;6277573;28;20470;-62
2021/04/05 03:37:34;;;;;;;4.07;3.33;;;3.60;72.00;;;;;;6277750;28;20918;-60
2021/04/05 03:40:40;;;;;;;4.50;4.10;;;3.50;72.20;;;;;;6278007;28;20469;-60
2021/04/05 03:43:52;;;;;;;4.43;3.33;;;3.60;72.40;;;;;;6277125;28;20489;-60
2021/04/05 03:47:00;;;;;;;4.57;3.20;;;3.50;72.60;;;;;;6272942;28;20478;-60
2021/04/05 03:50:10;;;;;;;4.20;3.70;;;3.50;72.10;;;;;;6277159;28;20492;-60
2021/04/05 03:53:17;;;;;;;4.40;4.03;;;3.50;72.20;;;;;;6277328;28;20471;-60
2021/04/05 03:56:25;;;;;;;4.53;3.73;;;3.40;72.80;;;;;;6276169;28;20478;-60
2021/04/05 03:59:31;;;;;;;4.53;4.07;;;3.40;72.90;;;;;;6275857;28;20474;-60
2021/04/05 04:02:40;;;;;;;6.40;3.60;;;3.40;73.80;;;;;;6275971;28;20478;-61
2021/04/05 04:05:47;;;;;;;4.30;3.90;;;3.40;73.40;;;;;;6275853;28;20481;-62
2021/04/05 04:08:51;;;;;;;5.13;4.27;;;3.30;73.90;;;;;;6275969;28;20463;-62
2021/04/05 04:11:56;;;;;;;8.00;4.03;;;3.30;73.60;;;;;;6275866;28;20557;-59
2021/04/05 04:15:00;;;;;;;4.40;3.60;;;3.30;73.90;;;;;;6275447;28;20916;-60
2021/04/05 04:18:04;;;;;;;6.40;4.00;;;3.30;73.80;;;;;;6275403;28;20470;-60
2021/04/05 04:21:08;;;;;;;5.93;4.20;;;3.20;74.00;;;;;;6275481;28;20492;-60
2021/04/05 04:24:10;;;;;;;4.63;4.00;;;3.10;74.20;;;;;;6275206;28;20486;-60
2021/04/05 04:27:15;;;;;;;5.90;4.13;;;3.20;74.90;;;;;;6275301;28;20477;-60
2021/04/05 04:30:31;;;;;;;4.77;4.30;;;3.20;74.80;;;;;;6275105;28;20470;-60
2021/04/05 04:33:33;;;;;;;4.30;3.90;;;3.20;74.90;;;;;;6275081;28;20471;-59
2021/04/05 04:36:36;;;;;;;4.53;3.70;;;3.30;74.90;;;;;;6275082;28;20478;-60
2021/04/05 04:39:41;;;;;;;5.07;4.57;;;3.20;75.00;;;;;;6275078;28;20447;-60
2021/04/05 04:42:44;;;;;;;5.27;4.77;;;3.20;74.70;;;;;;6274769;28;20965;-60
2021/04/05 04:45:46;;;;;;;6.83;4.43;;;3.10;75.70;;;;;;6274952;28;20450;-59
2021/04/05 04:48:54;;;;;;;4.97;3.90;;;3.20;75.40;;;;;;6266041;28;20450;-59
2021/04/05 04:51:57;;;;;;;5.20;4.73;;;3.20;75.20;;;;;;6274554;28;20970;-59
2021/04/05 04:54:59;;;;;;;6.80;4.67;;;3.20;75.30;;;;;;6274829;28;20480;-59
2021/04/05 04:58:03;;;;;;;4.70;3.70;;;3.20;75.50;;;;;;6273768;28;20453;-59
2021/04/05 05:01:06;;;;;;;4.27;3.87;;;3.30;75.50;;;;;;6274559;28;20474;-59
2021/04/05 05:04:12;;;;;;;4.53;3.77;;;3.40;75.00;;;;;;6274234;28;20791;-59
2021/04/05 05:07:15;;;;;;;4.63;3.97;;;3.40;74.40;;;;;;6274734;28;20477;-59
2021/04/05 05:10:20;;;;;;;5.00;3.90;;;3.40;74.00;;;;;;6274228;28;20466;-59
2021/04/05 05:13:23;;;;;;;4.40;4.00;;;3.50;74.30;;;;;;6274100;28;20470;-61
2021/04/05 05:16:26;;;;;;;7.13;3.80;;;3.50;74.60;;;;;;6273969;28;20600;-59
2021/04/05 05:19:29;;;;;;;4.33;3.77;;;3.50;74.90;;;;;;6274413;28;20473;-59
2021/04/05 05:22:32;;;;;;;5.40;4.60;;;3.50;75.20;;;;;;6273981;28;20481;-59
2021/04/05 05:25:36;;;;;;;5.60;4.10;;;3.50;75.20;;;;;;6274016;28;20520;-59
2021/04/05 05:28:40;;;;;;;4.77;3.50;;;3.60;74.90;;;;;;6273910;28;20466;-62
2021/04/05 05:31:43;;;;;;;4.70;4.07;;;3.80;74.50;;;;;;6274103;28;20470;-62
2021/04/05 05:34:47;;;;;;;5.00;4.37;;;3.80;73.60;;;;;;6273916;28;20474;-62
2021/04/05 05:37:49;;;;;;;4.53;4.13;;;3.90;73.00;;;;;;6274012;28;20470;-62
2021/04/05 05:40:54;;;;;;;4.67;4.30;;;4.00;72.90;;;;;;6273692;28;20470;-62
2021/04/05 05:44:08;;;;;;;4.30;3.90;;;4.10;72.70;;;;;;6273213;28;20492;-63
2021/04/05 05:47:18;;;;;;;4.77;4.37;;;4.20;72.80;;;;;;6273654;28;20470;-60
2021/04/05 05:50:25;;;;;;;4.97;4.43;;;4.20;72.40;;;;;;6273279;28;20565;-60
2021/04/05 05:53:42;;;;;;;4.93;4.53;;;4.30;72.50;;;;;;6268806;28;20543;-60
2021/04/05 05:56:49;;;;;;;4.70;4.30;;;4.30;72.50;;;;;;6273594;28;20492;-61
2021/04/05 05:59:57;;;;;;;6.93;4.93;;;4.30;72.20;;;;;;6273479;28;20477;-59
2021/04/05 06:03:19;;;;;;;4.97;4.27;;;4.40;71.80;;;;;;6273355;28;20485;-60
2021/04/05 06:06:28;;;;;;;4.93;4.50;;;4.60;71.70;;;;;;6273455;28;20474;-59
2021/04/05 06:09:44;;;;;;;5.17;4.77;;;4.70;70.90;;;;;;6278392;28;20786;-59
2021/04/05 06:13:01;;;;;;;5.23;4.47;;;4.80;70.40;;;;;;6278641;28;20469;-63
2021/04/05 06:16:16;;;;;;;5.50;4.57;;;5.00;70.20;;;;;;6277986;28;20507;-60
2021/04/05 06:19:40;;;;;;;6.73;4.60;;;5.10;69.50;;;;;;6278605;28;20485;-60
2021/04/05 06:23:22;;;;;;;4.00;3.57;;;5.20;68.60;;;;;;6278229;28;20805;-61
2021/04/05 06:26:40;;;;;;;6.33;4.63;;;5.50;68.70;;;;;;6263275;28;20458;-60
2021/04/05 06:30:01;;;;;;;7.80;4.13;;;6.30;68.70;;;;;;6277938;28;20470;-60
2021/04/05 06:33:13;;;;;;;6.30;4.00;;;8.60;60.90;;;;;;6277935;28;20970;-61
2021/04/05 06:36:23;;;;;;;5.87;3.97;;;11.00;53.90;;;;;;6278131;28;20466;-61
2021/04/05 06:39:29;;;;;;;4.10;3.40;;;13.00;47.90;;;;;;6277914;28;20478;-61
2021/04/05 06:42:48;;;;;;;4.37;4.00;;;14.30;42.40;;;;;;6277858;28;20473;-60
2021/04/05 06:46:04;;;;;;;4.00;3.70;;;15.50;40.00;;;;;;6277624;28;20505;-60
2021/04/05 06:49:25;;;;;;;3.93;3.20;;;16.80;37.30;;;;;;6277589;28;20966;-60
2021/04/05 06:52:39;;;;;;;5.53;3.63;;;17.80;35.40;;;;;;6277398;28;20486;-60
2021/04/05 06:55:42;;;;;;;4.10;3.50;;;18.70;32.90;;;;;;6273160;28;20474;-60
2021/04/05 06:59:12;;;;;;;4.20;3.60;;;19.70;31.40;;;;;;6277442;28;20554;-60
2021/04/05 07:02:34;;;;;;;5.40;4.57;;;20.50;29.70;;;;;;6276955;28;20996;-60
2021/04/05 07:05:56;;;;;;;3.17;2.87;;;20.70;28.60;;;;;;6276792;28;20232;-60
2021/04/05 07:09:04;;;;;;;4.43;4.00;;;21.20;28.00;;;;;;6276695;28;20232;-60
2021/04/05 07:12:17;;;;;;;4.20;3.80;;;21.40;27.60;;;;;;6276433;28;20232;-60
2021/04/05 07:15:28;;;;;;;4.70;3.30;;;22.40;27.00;;;;;;6276161;28;20243;-60
2021/04/05 07:18:47;;;;;;;3.90;3.53;;;23.60;26.00;;;;;;6275761;28;20549;-60
2021/04/05 07:22:06;;;;;;;7.50;4.37;;;24.50;25.20;;;;;;6276340;28;20244;-60
2021/04/05 07:25:15;;;;;;;4.07;3.77;;;25.40;23.90;;;;;;6276055;28;20548;-61
2021/04/05 07:28:23;;;;;;;4.90;4.00;;;26.10;23.30;;;;;;6276398;28;20227;-60
2021/04/05 07:31:35;;;;;;;6.13;4.27;;;27.10;23.10;;;;;;6276196;28;20330;-60
2021/04/05 07:34:49;;;;;;;4.37;3.97;;;27.60;21.80;;;;;;6275914;28;20234;-60
2021/04/05 07:38:03;;;;;;;4.80;4.30;;;27.80;21.20;;;;;;6275922;28;20570;-60
2021/04/05 07:41:10;;;;;;;6.53;4.60;;;28.20;21.10;;;;;;6276046;28;20242;-61
2021/04/05 07:44:41;;;;;;;5.77;5.27;;;29.10;21.10;;;;;;6275089;28;20239;-61
2021/04/05 07:47:51;;;;;;;5.57;5.07;;;28.90;20.50;;;;;;6274532;28;20231;-62
2021/04/05 07:50:58;;;;;;;5.87;5.27;;;29.40;20.50;;;;;;6275562;28;20250;-61
2021/04/05 07:54:04;;;;;;;5.70;5.20;;;29.70;19.60;;;;;;6274308;28;20242;-62
2021/04/05 07:57:13;;;;;;;4.70;4.30;;;30.20;19.40;;;;;;6275490;28;20227;-61
2021/04/05 08:00:27;;;;;;;5.97;4.37;;;30.90;18.70;;;;;;6245786;28;20236;-61
2021/04/05 08:03:51;;;;;;;4.73;4.33;;;31.30;18.70;;;;;;6274510;28;20243;-61
2021/04/05 08:06:59;;;;;;;4.78;4.47;;;32.30;18.20;;;;;;6275483;28;20215;-61
2021/04/05 08:10:10;;;;;;;8.40;4.68;;;32.90;17.70;;;;;;6275095;28;20227;-61
2021/04/05 08:13:22;;;;;;;5.22;4.63;;;33.40;17.00;;;;;;6275213;28;20231;-61
2021/04/05 08:16:33;;;;;;;8.13;5.25;;;34.20;16.70;;;;;;6275005;28;20683;-61
2021/04/05 08:19:56;;;;;;;5.45;5.00;;;33.70;16.40;;;;;;6275168;28;20234;-61
2021/04/05 08:23:06;;;;;;;4.53;4.13;;;34.30;16.40;;;;;;6274640;28;20242;-61
2021/04/05 08:26:22;;;;;;;5.15;4.68;;;34.80;16.30;;;;;;6273551;28;20262;-63
2021/04/05 08:29:35;;;;;;;4.85;4.13;;;34.90;16.00;;;;;;6272216;28;20242;-62
2021/04/05 08:32:52;;;;;;;5.20;4.78;;;35.70;15.80;;;;;;6271286;28;20219;-61
2021/04/05 08:36:06;;;;;;;5.70;4.68;;;36.90;15.70;;;;;;6272727;28;20238;-61
2021/04/05 08:39:13;;;;;;;4.15;3.85;;;36.80;14.60;;;;;;6272273;28;20231;-62
2021/04/05 08:42:31;;;;;;;5.68;4.82;;;37.20;14.60;;;;;;6272302;28;20246;-62
2021/04/05 08:45:40;;;;;;;4.93;4.53;;;37.90;14.40;;;;;;6271387;28;20223;-60
2021/04/05 08:48:47;;;;;;;5.30;4.80;;;38.40;14.10;;;;;;6273895;28;20264;-61
2021/04/05 08:51:53;;;;;;;4.88;4.47;;;38.40;14.20;;;;;;6273601;28;20246;-61
2021/04/05 08:54:55;;;;;;;4.78;4.38;;;39.00;13.70;;;;;;6269140;28;20214;-61
2021/04/05 08:58:03;;;;;;;4.38;3.67;;;39.00;13.40;;;;;;6273498;28;20206;-61
2021/04/05 09:01:11;;;;;;;4.22;3.92;;;39.70;13.40;;;;;;6269409;28;20238;-60
2021/04/05 09:04:20;;;;;;;5.00;4.60;;;39.80;13.30;;;;;;6270791;28;20227;-60
2021/04/05 09:07:39;;;;;;;4.45;3.90;;;39.60;13.20;;;;;;6273709;28;20226;-62
2021/04/05 09:10:48;;;;;;;3.85;3.55;;;40.10;12.90;;;;;;6271755;28;20565;-61
2021/04/05 09:13:53;;;;;;;4.05;3.65;;;40.40;12.90;;;;;;6273081;28;20219;-61
2021/04/05 09:17:23;;;;;;;3.58;3.30;;;40.60;12.50;;;;;;6273038;28;20223;-61
2021/04/05 09:20:41;;;;;;;3.60;3.30;;;40.70;12.50;;;;;;6272907;28;20325;-61
2021/04/05 09:24:07;;;;;;;4.43;4.03;;;40.60;12.20;;;;;;6273185;28;20230;-61
2021/04/05 09:27:32;;;;;;;4.10;3.55;;;38.40;13.10;;;;;;6268962;28;20284;-61
2021/04/05 09:31:06;;;;;;;3.83;3.38;;;37.60;13.60;;;;;;6272453;28;20631;-61
2021/04/05 09:34:42;;;;;;;3.85;3.55;;;37.30;13.70;;;;;;6249291;28;20239;-61
2021/04/05 09:38:08;;;;;;;3.70;3.40;;;37.80;13.60;;;;;;6249306;28;20691;-60
2021/04/05 09:41:22;;;;;;;3.58;3.28;;;39.20;13.20;;;;;;6249657;28;20572;-61
2021/04/05 09:44:55;;;;;;;3.58;3.28;;;39.40;12.90;;;;;;6249177;28;20234;-61
2021/04/05 09:48:39;;;;;;;3.65;3.42;;;40.10;12.80;;;;;;6249243;28;20237;-61
2021/04/05 09:52:13;;;;;;;3.47;3.17;;;41.00;12.30;;;;;;6248941;28;20702;-61
2021/04/05 09:55:21;;;;;;;3.58;3.28;;;39.90;12.80;;;;;;6249168;28;20227;-61
2021/04/05 09:58:26;;;;;;;3.22;2.92;;;38.30;12.60;;;;;;6249423;28;20564;-61
2021/04/05 10:01:31;;;;;;;3.15;2.85;;;37.30;13.50;;;;;;6248990;28;20759;-64
2021/04/05 10:04:35;;;;;;;3.00;2.80;;;35.10;13.40;;;;;;6249008;28;20702;-60
2021/04/05 10:07:40;;;;;;;3.58;3.28;;;33.30;14.50;;;;;;6249082;28;20226;-61
2021/04/05 10:10:45;;;;;;;3.75;3.45;;;31.10;17.10;;;;;;6249087;28;20549;-60
2021/04/05 10:13:49;;;;;;;5.50;3.83;;;29.00;17.40;;;;;;6248753;28;20242;-60
2021/04/05 10:16:55;;;;;;;5.20;3.93;;;27.70;18.40;;;;;;6260193;28;20332;-61
2021/04/05 10:20:02;;;;;;;3.83;3.50;;;26.10;19.60;;;;;;6272091;28;20685;-61
2021/04/05 10:23:08;;;;;;;3.27;2.93;;;24.10;20.60;;;;;;6272128;28;20255;-62
2021/04/05 10:26:13;;;;;;;3.80;3.50;;;23.20;21.60;;;;;;6272262;28;20305;-61
2021/04/05 10:29:15;;;;;;;3.97;3.20;;;21.80;22.40;;;;;;6272189;28;20628;-60
2021/04/05 10:32:22;;;;;;;3.03;2.60;;;20.70;23.50;;;;;;6273335;28;20611;-60
2021/04/05 10:35:28;;;;;;;3.43;3.13;;;20.60;24.40;;;;;;6273252;28;20314;-61
2021/04/05 10:38:30;;;;;;;3.13;2.93;;;20.20;24.80;;;;;;6273466;28;20234;-63
2021/04/05 10:41:34;;;;;;;2.80;2.50;;;19.80;25.20;;;;;;6273300;28;20285;-63
2021/04/05 10:44:42;;;;;;;3.93;3.53;;;19.60;25.50;;;;;;6272938;28;20235;-62
2021/04/05 10:47:52;;;;;;;4.10;3.23;;;19.50;25.60;;;;;;6272657;28;20691;-61
2021/04/05 10:50:59;;;;;;;2.77;2.57;;;18.90;25.30;;;;;;6270667;28;20239;-62
2021/04/05 10:54:05;;;;;;;4.60;3.57;;;18.70;26.40;;;;;;6272777;28;20235;-62
2021/04/05 10:57:11;;;;;;;5.17;3.97;;;18.60;26.40;;;;;;6276913;28;20583;-63
2021/04/05 11:00:22;;;;;;;4.87;3.83;;;18.50;27.40;;;;;;6275229;28;20313;-62
2021/04/05 11:03:28;;;;;;;3.80;3.40;;;18.50;27.40;;;;;;6277287;28;20234;-60
2021/04/05 11:06:34;;;;;;;4.70;4.30;;;18.50;28.10;;;;;;6277780;28;20497;-61
2021/04/05 11:09:40;;;;;;;4.30;3.87;;;18.80;28.10;;;;;;6268196;28;20307;-60
2021/04/05 11:12:45;;;;;;;4.70;4.30;;;18.90;28.10;;;;;;6276987;28;20648;-60
2021/04/05 11:15:48;;;;;;;6.00;3.73;;;18.60;28.50;;;;;;6277171;28;20664;-62
2021/04/05 11:18:54;;;;;;;4.37;3.97;;;18.70;28.60;;;;;;6277657;28;20214;-61
2021/04/05 11:21:59;;;;;;;4.37;3.97;;;18.80;28.10;;;;;;6277379;28;20566;-60
2021/04/05 11:25:04;;;;;;;4.57;4.17;;;18.80;27.90;;;;;;6277874;28;20239;-64
2021/04/05 11:28:13;;;;;;;4.30;3.90;;;19.00;28.10;;;;;;6274303;28;20229;-65
2021/04/05 11:31:16;;;;;;;6.13;4.90;;;18.80;28.80;;;;;;6252916;28;20585;-64
2021/04/05 11:34:25;;;;;;;4.60;4.20;;;19.00;28.60;;;;;;6252819;28;20247;-63
2021/04/05 11:37:34;;;;;;;4.40;4.00;;;19.00;28.50;;;;;;6272494;28;20230;-65
2021/04/05 11:40:38;;;;;;;5.07;4.07;;;18.50;29.10;;;;;;6271526;28;20315;-64
2021/04/05 11:43:43;;;;;;;6.30;3.90;;;18.50;29.20;;;;;;6276690;28;20235;-65
2021/04/05 11:46:49;;;;;;;4.67;4.27;;;18.60;29.10;;;;;;6276978;28;20271;-64
2021/04/05 11:49:53;;;;;;;4.77;4.00;;;18.70;29.20;;;;;;6276086;28;20687;-64
2021/04/05 11:53:02;;;;;;;5.83;4.47;;;18.90;29.20;;;;;;6274003;28;20223;-64
2021/04/05 11:56:18;;;;;;;4.63;4.23;;;18.90;29.00;;;;;;6273749;28;20334;-66
2021/04/05 11:59:24;;;;;;;9.00;4.10;;;18.90;29.30;;;;;;6273688;28;20228;-65
2021/04/05 12:02:50;;;;;;;5.53;5.03;;;19.10;29.20;;;;;;6273376;28;20976;-65
2021/04/05 12:06:01;;;;;;;5.10;4.70;;;19.10;29.10;;;;;;6274268;28;20312;-64
2021/04/05 12:09:09;;;;;;;4.20;3.90;;;19.00;29.30;;;;;;6275255;28;20231;-64
2021/04/05 12:12:20;;;;;;;4.47;4.07;;;19.00;29.00;;;;;;6276391;28;20232;-64
2021/04/05 12:15:24;;;;;;;4.80;4.40;;;19.00;29.10;;;;;;6276134;28;20246;-64
2021/04/05 12:18:28;;;;;;;4.43;3.93;;;18.90;29.20;;;;;;6276100;28;20232;-64
2021/04/05 12:21:32;;;;;;;4.90;4.50;;;18.80;29.50;;;;;;6274606;28;20227;-65
2021/04/05 12:24:40;;;;;;;4.90;4.50;;;19.20;29.30;;;;;;6275924;28;20239;-65
2021/04/05 12:27:42;;;;;;;4.57;4.17;;;18.90;29.20;;;;;;6275736;28;20228;-65
2021/04/05 12:30:46;;;;;;;7.53;3.83;;;19.30;29.20;;;;;;6276019;28;20215;-64
2021/04/05 12:33:50;;;;;;;4.60;3.90;;;19.70;28.90;;;;;;6275793;28;20224;-65
2021/04/05 12:36:56;;;;;;;4.57;4.20;;;19.80;28.80;;;;;;6276193;28;20206;-64
2021/04/05 12:40:03;;;;;;;5.57;4.13;;;20.00;28.70;;;;;;6275788;28;20620;-64
2021/04/05 12:43:08;;;;;;;4.73;4.43;;;20.30;28.40;;;;;;6275550;28;20231;-64
2021/04/05 12:46:17;;;;;;;5.60;4.27;;;20.60;28.30;;;;;;6275852;28;20576;-65
2021/04/05 12:49:21;;;;;;;4.17;3.73;;;20.70;28.00;;;;;;6275336;28;20686;-64
2021/04/05 12:52:31;;;;;;;4.37;3.97;;;20.90;27.80;;;;;;6275362;28;20239;-65
2021/04/05 12:55:40;;;;;;;4.10;3.80;;;20.90;27.50;;;;;;6275170;28;20274;-64
2021/04/05 12:58:42;;;;;;;3.10;2.90;;;21.10;27.50;;;;;;6275392;28;20231;-65
2021/04/05 13:01:50;;;;;;;3.70;2.80;;;20.90;27.20;;;;;;6274939;28;20550;-65
2021/04/05 13:04:56;;;;;;;3.33;3.00;;;20.70;27.10;;;;;;6275028;28;20691;-64
2021/04/05 13:08:05;;;;;;;7.00;3.27;;;20.80;27.00;;;;;;6275115;28;20244;-65
2021/04/05 13:11:18;;;;;;;4.30;2.73;;;20.70;27.00;;;;;;6275013;28;20239;-64
2021/04/05 13:14:25;;;;;;;2.70;2.50;;;20.70;27.30;;;;;;6265101;28;20679;-64
2021/04/05 13:17:32;;;;;;;3.13;2.30;;;20.70;26.90;;;;;;6274427;28;20231;-64
2021/04/05 13:20:37;;;;;;;2.13;1.93;;;20.90;26.70;;;;;;6274772;28;20243;-65
2021/04/05 13:23:46;;;;;;;2.27;1.97;;;21.00;26.10;;;;;;6274896;28;20235;-65
2021/04/05 13:26:56;;;;;;;2.30;2.07;;;20.80;26.10;;;;;;6274853;28;20228;-64
2021/04/05 13:30:01;;;;;;;4.53;2.30;;;20.80;26.40;;;;;;6255586;28;20511;-65
2021/04/05 13:33:06;;;;;;;2.17;1.97;;;20.90;26.40;;;;;;6249605;28;20251;-65
2021/04/05 13:36:12;;;;;;;3.80;2.23;;;20.80;26.40;;;;;;6259204;28;20228;-65
2021/04/05 13:39:15;;;;;;;2.70;2.50;;;21.00;26.10;;;;;;6274849;28;20235;-64
2021/04/05 13:42:22;;;;;;;2.53;2.20;;;21.00;26.40;;;;;;6275619;28;20619;-65
2021/04/05 13:45:32;;;;;;;1.83;1.70;;;20.80;26.30;;;;;;6276293;28;20690;-64
2021/04/05 13:48:36;;;;;;;2.13;1.93;;;20.60;26.50;;;;;;6276379;28;20223;-65
2021/04/05 13:51:39;;;;;;;2.47;1.70;;;20.50;27.10;;;;;;6275073;28;20240;-64
2021/04/05 13:54:43;;;;;;;1.80;1.70;;;20.10;26.00;;;;;;6276126;28;20238;-64
2021/04/05 13:57:49;;;;;;;2.30;1.63;;;19.80;26.50;;;;;;6275389;28;20234;-64
2021/04/05 14:00:52;;;;;;;2.23;1.70;;;19.30;26.70;;;;;;6276530;28;20279;-63
2021/04/05 14:03:56;;;;;;;1.80;1.70;;;18.90;27.70;;;;;;6275766;28;20219;-63
2021/04/05 14:07:00;;;;;;;1.80;1.70;;;18.60;28.70;;;;;;6275442;28;20654;-65
2021/04/05 14:10:05;;;;;;;2.30;2.10;;;18.50;28.20;;;;;;6274715;28;20207;-66
2021/04/05 14:13:11;;;;;;;1.93;1.83;;;18.00;28.60;;;;;;6272102;28;20232;-61
2021/04/05 14:16:18;;;;;;;2.30;1.50;;;17.90;29.20;;;;;;6268108;28;20767;-60
2021/04/05 14:19:28;;;;;;;4.80;2.13;;;18.00;30.00;;;;;;6273817;28;20478;-61
2021/04/05 14:22:35;;;;;;;2.87;1.83;;;18.10;29.90;;;;;;6272917;28;20466;-60
2021/04/05 14:25:49;;;;;;;3.27;2.23;;;18.30;30.10;;;;;;6268198;28;20954;-60
2021/04/05 14:28:55;;;;;;;2.40;1.90;;;18.30;30.00;;;;;;6273775;28;20285;-61
2021/04/05 14:32:03;;;;;;;2.30;1.90;;;18.30;29.90;;;;;;6275128;28;20625;-60
2021/04/05 14:35:07;;;;;;;2.40;1.50;;;18.30;29.90;;;;;;6278246;28;20702;-60
2021/04/05 14:38:13;;;;;;;2.13;1.83;;;18.60;30.00;;;;;;6278568;28;20466;-60
2021/04/05 14:41:19;;;;;;;2.67;2.47;;;18.50;30.00;;;;;;6278422;28;20730;-60
2021/04/05 14:44:34;;;;;;;1.90;1.70;;;18.40;30.40;;;;;;6278566;28;20232;-60
2021/04/05 14:47:40;;;;;;;2.37;1.97;;;18.50;30.30;;;;;;6278394;28;20280;-60
2021/04/05 14:50:44;;;;;;;3.40;2.00;;;18.50;30.00;;;;;;6278141;28;20243;-60
2021/04/05 14:53:49;;;;;;;4.60;2.93;;;18.50;30.00;;;;;;6277801;28;20258;-60
2021/04/05 14:56:53;;;;;;;3.00;2.13;;;18.30;30.00;;;;;;6277878;28;20231;-60
2021/04/05 15:00:05;;;;;;;3.67;2.47;;;18.30;30.30;;;;;;6277875;28;20469;-60
2021/04/05 15:03:12;;;;;;;3.10;2.27;;;18.10;30.80;;;;;;6277644;28;20235;-59
2021/04/05 15:06:20;;;;;;;2.20;2.00;;;18.10;32.30;;;;;;6276966;28;20235;-59
2021/04/05 15:09:27;;;;;;;1.90;1.80;;;18.00;31.50;;;;;;6276903;28;20228;-59
2021/04/05 15:12:33;;;;;;;2.50;2.03;;;18.00;30.90;;;;;;6276455;28;20466;-59
2021/04/05 15:15:40;;;;;;;2.13;1.93;;;17.90;31.20;;;;;;6274309;28;20470;-61
2021/04/05 15:18:43;;;;;;;6.93;2.60;;;17.80;31.50;;;;;;6277440;28;20303;-59
2021/04/05 15:21:49;;;;;;;2.73;2.10;;;17.60;32.20;;;;;;6277315;28;20496;-60
2021/04/05 15:24:54;;;;;;;2.90;2.27;;;17.70;32.40;;;;;;6277236;28;20450;-60
2021/04/05 15:27:57;;;;;;;1.87;1.70;;;17.60;32.30;;;;;;6277107;28;20442;-60
2021/04/05 15:31:02;;;;;;;2.47;1.87;;;17.60;32.70;;;;;;6277286;28;20446;-60
2021/04/05 15:34:10;;;;;;;2.50;2.10;;;17.60;32.90;;;;;;6277436;28;20467;-60
2021/04/05 15:37:15;;;;;;;2.70;2.33;;;17.60;33.30;;;;;;6276852;28;20477;-60
2021/04/05 15:40:19;;;;;;;4.07;2.60;;;17.50;33.50;;;;;;6276504;28;20471;-60
2021/04/05 15:43:26;;;;;;;2.43;1.90;;;17.30;34.00;;;;;;6276775;28;20520;-62
2021/04/05 15:46:32;;;;;;;2.13;1.93;;;17.20;34.20;;;;;;6276773;28;20992;-60
2021/04/05 15:49:36;;;;;;;2.10;2.00;;;17.10;34.30;;;;;;6276554;28;20474;-60
2021/04/05 15:52:42;;;;;;;3.33;1.80;;;17.10;34.50;;;;;;6276430;28;20478;-60
2021/04/05 15:55:48;;;;;;;2.83;2.00;;;17.10;34.30;;;;;;6276682;28;20550;-60
2021/04/05 15:59:13;;;;;;;2.90;2.10;;;17.20;34.50;;;;;;6276442;28;20482;-60
2021/04/05 16:02:21;;;;;;;2.77;1.90;;;17.20;34.90;;;;;;6276273;28;20466;-61
2021/04/05 16:05:26;;;;;;;2.53;2.00;;;17.30;35.30;;;;;;6276736;28;20471;-60
2021/04/05 16:08:35;;;;;;;3.63;1.93;;;17.20;35.20;;;;;;6276405;28;20558;-60
2021/04/05 16:11:47;;;;;;;2.53;2.20;;;17.00;35.30;;;;;;6275954;28;20824;-61
2021/04/05 16:14:52;;;;;;;2.60;2.40;;;16.80;35.70;;;;;;6275774;28;20821;-62
2021/04/05 16:18:01;;;;;;;3.30;2.80;;;16.70;35.50;;;;;;6276088;28;20929;-60
2021/04/05 16:21:11;;;;;;;3.67;2.10;;;16.50;36.10;;;;;;6275861;28;20474;-62